sensor_id;sensor_type;location;lat;lon;timestamp;temperature;humidity
4596;DHT22;2310;49.978;8.742;2022-10-22T00:00:33;16.30;99.90
4596;DHT22;2310;49.978;8.742;2022-10-22T00:04:34;16.20;99.90
4596;DHT22;2310;49.978;8.742;2022-10-22T00:08:36;16.50;99.90
4596;DHT22;2310;49.978;8.742;2022-10-22T00:12:38;16.50;99.90
4596;DHT22;2310;49.978;8.742;2022-10-22T00:16:39;16.70;99.90
4596;DHT22;2310;49.978;8.742;2022-10-22T00:20:41;16.70;99.90
4596;DHT22;2310;49.978;8.742;2022-10-22T00:24:42;16.70;99.90
4596;DHT22;2310;49.978;8.742;2022-10-22T00:28:43;16.70;99.90
4596;DHT22;2310;49.978;8.742;2022-10-22T00:32:44;16.70;99.90
4596;DHT22;2310;49.978;8.742;2022-10-22T00:36:46;16.70;99.90
4596;DHT22;2310;49.978;8.742;2022-10-22T00:40:48;16.60;99.90
4596;DHT22;2310;49.978;8.742;2022-10-22T00:45:13;16.60;99.90
4596;DHT22;2310;49.978;8.742;2022-10-22T00:49:09;16.50;99.90
4596;DHT22;2310;49.978;8.742;2022-10-22T00:53:16;16.50;99.90
4596;DHT22;2310;49.978;8.742;2022-10-22T00:57:19;16.40;99.90
4596;DHT22;2310;49.978;8.742;2022-10-22T01:01:27;16.20;99.90
4596;DHT22;2310;49.978;8.742;2022-10-22T01:05:30;16.10;99.90
4596;DHT22;2310;49.978;8.742;2022-10-22T01:09:43;16.20;99.90
4596;DHT22;2310;49.978;8.742;2022-10-22T01:13:47;16.00;99.90
4596;DHT22;2310;49.978;8.742;2022-10-22T01:30:45;16.10;99.90
4596;DHT22;2310;49.978;8.742;2022-10-22T01:34:51;16.10;99.90
4596;DHT22;2310;49.978;8.742;2022-10-22T01:38:53;16.10;99.90
4596;DHT22;2310;49.978;8.742;2022-10-22T01:43:00;16.10;99.90
4596;DHT22;2310;49.978;8.742;2022-10-22T01:51:33;16.00;99.90
4596;DHT22;2310;49.978;8.742;2022-10-22T01:55:42;16.00;99.90
4596;DHT22;2310;49.978;8.742;2022-10-22T02:00:02;16.00;99.90
4596;DHT22;2310;49.978;8.742;2022-10-22T02:04:14;15.90;99.90
4596;DHT22;2310;49.978;8.742;2022-10-22T02:08:18;15.90;99.90
4596;DHT22;2310;49.978;8.742;2022-10-22T02:12:20;15.90;99.90
4596;DHT22;2310;49.978;8.742;2022-10-22T02:16:31;15.90;99.90
4596;DHT22;2310;49.978;8.742;2022-10-22T02:20:35;15.90;99.90
4596;DHT22;2310;49.978;8.742;2022-10-22T02:24:36;15.70;99.90
4596;DHT22;2310;49.978;8.742;2022-10-22T02:29:00;15.90;99.90
4596;DHT22;2310;49.978;8.742;2022-10-22T02:33:13;16.00;99.90
4596;DHT22;2310;49.978;8.742;2022-10-22T02:37:15;15.90;99.90
4596;DHT22;2310;49.978;8.742;2022-10-22T02:41:17;15.70;99.90
4596;DHT22;2310;49.978;8.742;2022-10-22T02:45:19;15.80;99.90
4596;DHT22;2310;49.978;8.742;2022-10-22T02:49:20;15.90;99.90
4596;DHT22;2310;49.978;8.742;2022-10-22T02:53:21;16.10;99.90
4596;DHT22;2310;49.978;8.742;2022-10-22T02:57:23;16.20;99.90
4596;DHT22;2310;49.978;8.742;2022-10-22T03:01:24;16.20;99.90
4596;DHT22;2310;49.978;8.742;2022-10-22T03:05:25;16.40;99.90
4596;DHT22;2310;49.978;8.742;2022-10-22T03:09:26;16.30;99.90
4596;DHT22;2310;49.978;8.742;2022-10-22T03:13:28;16.30;99.90
4596;DHT22;2310;49.978;8.742;2022-10-22T03:17:29;16.30;99.90
4596;DHT22;2310;49.978;8.742;2022-10-22T03:21:43;16.40;99.90
4596;DHT22;2310;49.978;8.742;2022-10-22T03:25:45;16.40;99.90
4596;DHT22;2310;49.978;8.742;2022-10-22T03:29:50;16.40;99.90
4596;DHT22;2310;49.978;8.742;2022-10-22T03:33:51;16.40;99.90
4596;DHT22;2310;49.978;8.742;2022-10-22T03:37:53;16.30;99.90
4596;DHT22;2310;49.978;8.742;2022-10-22T03:41:55;16.20;99.90
4596;DHT22;2310;49.978;8.742;2022-10-22T03:45:56;16.30;99.90
4596;DHT22;2310;49.978;8.742;2022-10-22T03:49:57;16.10;99.90
4596;DHT22;2310;49.978;8.742;2022-10-22T03:53:58;16.30;99.90
4596;DHT22;2310;49.978;8.742;2022-10-22T03:57:59;16.30;99.90
4596;DHT22;2310;49.978;8.742;2022-10-22T04:02:00;16.40;99.90
4596;DHT22;2310;49.978;8.742;2022-10-22T04:06:08;16.40;99.90
4596;DHT22;2310;49.978;8.742;2022-10-22T04:10:10;16.50;99.90
4596;DHT22;2310;49.978;8.742;2022-10-22T04:14:11;16.50;99.90
4596;DHT22;2310;49.978;8.742;2022-10-22T04:18:12;16.40;99.90
4596;DHT22;2310;49.978;8.742;2022-10-22T04:22:13;16.40;99.90
4596;DHT22;2310;49.978;8.742;2022-10-22T04:26:17;16.30;99.90
4596;DHT22;2310;49.978;8.742;2022-10-22T04:30:18;16.30;99.90
4596;DHT22;2310;49.978;8.742;2022-10-22T04:34:20;16.10;99.90
4596;DHT22;2310;49.978;8.742;2022-10-22T04:38:21;16.20;99.90
4596;DHT22;2310;49.978;8.742;2022-10-22T04:42:22;16.30;99.90
4596;DHT22;2310;49.978;8.742;2022-10-22T04:46:24;16.30;99.90
4596;DHT22;2310;49.978;8.742;2022-10-22T04:50:26;16.10;99.90
4596;DHT22;2310;49.978;8.742;2022-10-22T04:54:28;16.20;99.90
4596;DHT22;2310;49.978;8.742;2022-10-22T04:58:31;16.30;99.90
4596;DHT22;2310;49.978;8.742;2022-10-22T05:02:32;16.10;99.90
4596;DHT22;2310;49.978;8.742;2022-10-22T05:06:35;16.10;99.90
4596;DHT22;2310;49.978;8.742;2022-10-22T05:10:36;16.10;99.90
4596;DHT22;2310;49.978;8.742;2022-10-22T05:14:38;16.10;99.90
4596;DHT22;2310;49.978;8.742;2022-10-22T05:18:42;16.00;99.90
4596;DHT22;2310;49.978;8.742;2022-10-22T05:22:44;15.70;99.90
4596;DHT22;2310;49.978;8.742;2022-10-22T05:26:48;15.80;99.90
4596;DHT22;2310;49.978;8.742;2022-10-22T05:30:53;15.90;99.90
4596;DHT22;2310;49.978;8.742;2022-10-22T05:34:55;16.00;99.90
4596;DHT22;2310;49.978;8.742;2022-10-22T05:38:56;15.70;99.90
4596;DHT22;2310;49.978;8.742;2022-10-22T05:42:58;15.60;99.90
4596;DHT22;2310;49.978;8.742;2022-10-22T05:47:00;15.70;99.90
4596;DHT22;2310;49.978;8.742;2022-10-22T05:51:07;15.60;99.90
4596;DHT22;2310;49.978;8.742;2022-10-22T05:55:08;15.70;99.90
4596;DHT22;2310;49.978;8.742;2022-10-22T05:59:10;15.80;99.90
4596;DHT22;2310;49.978;8.742;2022-10-22T06:03:11;15.80;99.90
4596;DHT22;2310;49.978;8.742;2022-10-22T06:07:13;16.00;99.90
4596;DHT22;2310;49.978;8.742;2022-10-22T06:11:16;16.00;99.90
4596;DHT22;2310;49.978;8.742;2022-10-22T06:15:19;15.90;99.90
4596;DHT22;2310;49.978;8.742;2022-10-22T06:19:21;16.00;99.90
4596;DHT22;2310;49.978;8.742;2022-10-22T06:23:23;16.10;99.90
4596;DHT22;2310;49.978;8.742;2022-10-22T06:27:24;16.20;99.90
4596;DHT22;2310;49.978;8.742;2022-10-22T06:31:26;16.00;99.90
4596;DHT22;2310;49.978;8.742;2022-10-22T06:35:28;15.60;99.90
4596;DHT22;2310;49.978;8.742;2022-10-22T06:39:29;15.60;99.90
4596;DHT22;2310;49.978;8.742;2022-10-22T06:43:30;15.50;99.90
4596;DHT22;2310;49.978;8.742;2022-10-22T06:47:31;15.60;99.90
4596;DHT22;2310;49.978;8.742;2022-10-22T06:51:33;15.80;99.90
4596;DHT22;2310;49.978;8.742;2022-10-22T06:55:34;15.60;99.90
4596;DHT22;2310;49.978;8.742;2022-10-22T06:59:36;15.70;99.90
4596;DHT22;2310;49.978;8.742;2022-10-22T07:03:38;15.60;99.90
4596;DHT22;2310;49.978;8.742;2022-10-22T07:07:40;15.60;99.90
4596;DHT22;2310;49.978;8.742;2022-10-22T07:11:43;15.80;99.90
4596;DHT22;2310;49.978;8.742;2022-10-22T07:15:51;15.90;99.90
4596;DHT22;2310;49.978;8.742;2022-10-22T07:19:52;15.90;99.90
4596;DHT22;2310;49.978;8.742;2022-10-22T07:23:53;16.20;99.90
4596;DHT22;2310;49.978;8.742;2022-10-22T07:27:55;16.40;99.90
4596;DHT22;2310;49.978;8.742;2022-10-22T07:31:56;16.60;99.90
4596;DHT22;2310;49.978;8.742;2022-10-22T07:35:58;16.90;99.90
4596;DHT22;2310;49.978;8.742;2022-10-22T07:40:00;17.30;99.90
4596;DHT22;2310;49.978;8.742;2022-10-22T07:44:03;17.60;99.90
4596;DHT22;2310;49.978;8.742;2022-10-22T07:48:05;17.90;99.90
4596;DHT22;2310;49.978;8.742;2022-10-22T07:52:06;18.10;99.90
4596;DHT22;2310;49.978;8.742;2022-10-22T07:56:08;18.70;99.90
4596;DHT22;2310;49.978;8.742;2022-10-22T08:00:10;18.60;99.90
4596;DHT22;2310;49.978;8.742;2022-10-22T08:04:11;18.70;99.90
4596;DHT22;2310;49.978;8.742;2022-10-22T08:08:14;19.10;99.90
4596;DHT22;2310;49.978;8.742;2022-10-22T08:12:16;19.20;99.90
4596;DHT22;2310;49.978;8.742;2022-10-22T08:16:18;19.50;99.90
4596;DHT22;2310;49.978;8.742;2022-10-22T08:20:19;19.90;99.90
4596;DHT22;2310;49.978;8.742;2022-10-22T08:24:20;20.50;99.90
4596;DHT22;2310;49.978;8.742;2022-10-22T08:28:22;20.50;99.90
4596;DHT22;2310;49.978;8.742;2022-10-22T08:32:23;20.60;99.90
4596;DHT22;2310;49.978;8.742;2022-10-22T08:36:25;20.80;99.90
4596;DHT22;2310;49.978;8.742;2022-10-22T08:40:31;20.40;99.90
4596;DHT22;2310;49.978;8.742;2022-10-22T08:48:57;21.30;99.90
4596;DHT22;2310;49.978;8.742;2022-10-22T08:53:02;21.50;99.90
4596;DHT22;2310;49.978;8.742;2022-10-22T09:01:34;21.90;99.90
4596;DHT22;2310;49.978;8.742;2022-10-22T09:05:44;22.00;99.90
4596;DHT22;2310;49.978;8.742;2022-10-22T09:09:46;22.20;99.90
4596;DHT22;2310;49.978;8.742;2022-10-22T09:13:49;22.30;99.90
4596;DHT22;2310;49.978;8.742;2022-10-22T09:18:05;22.40;99.90
4596;DHT22;2310;49.978;8.742;2022-10-22T09:22:31;22.00;99.90
4596;DHT22;2310;49.978;8.742;2022-10-22T09:26:33;22.30;99.90
4596;DHT22;2310;49.978;8.742;2022-10-22T09:30:37;22.40;99.90
4596;DHT22;2310;49.978;8.742;2022-10-22T09:34:38;22.20;99.90
4596;DHT22;2310;49.978;8.742;2022-10-22T09:38:46;22.30;99.90
4596;DHT22;2310;49.978;8.742;2022-10-22T09:42:48;22.10;99.90
4596;DHT22;2310;49.978;8.742;2022-10-22T09:46:49;22.10;99.90
4596;DHT22;2310;49.978;8.742;2022-10-22T09:51:01;21.90;99.90
4596;DHT22;2310;49.978;8.742;2022-10-22T09:55:01;22.30;99.90
4596;DHT22;2310;49.978;8.742;2022-10-22T09:59:02;22.50;99.90
4596;DHT22;2310;49.978;8.742;2022-10-22T10:03:04;22.80;99.90
4596;DHT22;2310;49.978;8.742;2022-10-22T10:07:20;22.60;99.90
4596;DHT22;2310;49.978;8.742;2022-10-22T10:11:36;22.90;99.90
4596;DHT22;2310;49.978;8.742;2022-10-22T10:15:50;23.20;99.90
4596;DHT22;2310;49.978;8.742;2022-10-22T10:24:48;23.20;99.90
4596;DHT22;2310;49.978;8.742;2022-10-22T10:33:28;23.10;99.90
4596;DHT22;2310;49.978;8.742;2022-10-22T10:42:14;22.90;99.90
4596;DHT22;2310;49.978;8.742;2022-10-22T10:50:29;23.40;99.90
4596;DHT22;2310;49.978;8.742;2022-10-22T10:54:44;23.00;99.90
4596;DHT22;2310;49.978;8.742;2022-10-22T10:59:00;23.40;99.90
4596;DHT22;2310;49.978;8.742;2022-10-22T11:07:25;23.20;99.90
4596;DHT22;2310;49.978;8.742;2022-10-22T11:11:41;23.70;99.90
4596;DHT22;2310;49.978;8.742;2022-10-22T11:15:58;23.10;99.90
4596;DHT22;2310;49.978;8.742;2022-10-22T11:20:15;22.80;99.90
4596;DHT22;2310;49.978;8.742;2022-10-22T11:24:26;22.70;99.90
4596;DHT22;2310;49.978;8.742;2022-10-22T11:28:34;22.20;99.90
4596;DHT22;2310;49.978;8.742;2022-10-22T11:32:38;22.90;99.90
4596;DHT22;2310;49.978;8.742;2022-10-22T11:36:44;22.90;99.90
4596;DHT22;2310;49.978;8.742;2022-10-22T11:40:59;23.00;99.90
4596;DHT22;2310;49.978;8.742;2022-10-22T11:45:28;22.90;99.90
4596;DHT22;2310;49.978;8.742;2022-10-22T11:53:25;22.40;99.90
4596;DHT22;2310;49.978;8.742;2022-10-22T12:01:40;23.00;99.90
4596;DHT22;2310;49.978;8.742;2022-10-22T12:05:38;22.90;99.90
4596;DHT22;2310;49.978;8.742;2022-10-22T12:09:40;22.80;99.90
4596;DHT22;2310;49.978;8.742;2022-10-22T12:14:18;22.70;99.90
4596;DHT22;2310;49.978;8.742;2022-10-22T12:18:22;22.30;99.90
4596;DHT22;2310;49.978;8.742;2022-10-22T12:22:32;22.20;99.90
4596;DHT22;2310;49.978;8.742;2022-10-22T12:26:33;22.30;99.90
4596;DHT22;2310;49.978;8.742;2022-10-22T12:30:35;22.60;99.90
4596;DHT22;2310;49.978;8.742;2022-10-22T12:34:44;22.60;99.90
4596;DHT22;2310;49.978;8.742;2022-10-22T12:38:46;22.70;99.90
4596;DHT22;2310;49.978;8.742;2022-10-22T12:42:53;23.00;99.90
4596;DHT22;2310;49.978;8.742;2022-10-22T12:46:55;23.00;99.90
4596;DHT22;2310;49.978;8.742;2022-10-22T12:50:59;23.00;99.90
4596;DHT22;2310;49.978;8.742;2022-10-22T12:55:07;23.00;99.90
4596;DHT22;2310;49.978;8.742;2022-10-22T12:59:17;23.10;99.90
4596;DHT22;2310;49.978;8.742;2022-10-22T13:03:26;22.80;99.90
4596;DHT22;2310;49.978;8.742;2022-10-22T13:07:37;22.70;99.90
4596;DHT22;2310;49.978;8.742;2022-10-22T13:11:47;22.20;99.90
4596;DHT22;2310;49.978;8.742;2022-10-22T13:15:44;22.50;99.90
4596;DHT22;2310;49.978;8.742;2022-10-22T13:24:02;22.30;99.90
4596;DHT22;2310;49.978;8.742;2022-10-22T13:28:20;22.40;99.90
4596;DHT22;2310;49.978;8.742;2022-10-22T13:32:32;22.50;99.90
4596;DHT22;2310;49.978;8.742;2022-10-22T13:36:35;22.50;99.90
4596;DHT22;2310;49.978;8.742;2022-10-22T13:40:37;22.60;99.90
4596;DHT22;2310;49.978;8.742;2022-10-22T13:44:38;22.70;99.90
4596;DHT22;2310;49.978;8.742;2022-10-22T13:48:40;22.60;99.90
4596;DHT22;2310;49.978;8.742;2022-10-22T13:52:46;22.70;99.90
4596;DHT22;2310;49.978;8.742;2022-10-22T13:56:49;22.60;99.90
4596;DHT22;2310;49.978;8.742;2022-10-22T14:00:55;22.60;99.90
4596;DHT22;2310;49.978;8.742;2022-10-22T14:04:55;22.70;99.90
4596;DHT22;2310;49.978;8.742;2022-10-22T14:08:59;22.60;99.90
4596;DHT22;2310;49.978;8.742;2022-10-22T14:13:01;22.90;99.90
4596;DHT22;2310;49.978;8.742;2022-10-22T14:17:04;22.90;99.90
4596;DHT22;2310;49.978;8.742;2022-10-22T14:21:06;22.90;99.90
4596;DHT22;2310;49.978;8.742;2022-10-22T14:25:12;22.60;99.90
4596;DHT22;2310;49.978;8.742;2022-10-22T14:29:14;22.50;99.90
4596;DHT22;2310;49.978;8.742;2022-10-22T14:33:22;22.30;99.90
4596;DHT22;2310;49.978;8.742;2022-10-22T14:37:25;22.50;99.90
4596;DHT22;2310;49.978;8.742;2022-10-22T14:41:27;22.10;99.90
4596;DHT22;2310;49.978;8.742;2022-10-22T14:45:29;22.00;99.90
4596;DHT22;2310;49.978;8.742;2022-10-22T14:49:30;21.90;99.90
4596;DHT22;2310;49.978;8.742;2022-10-22T14:53:32;21.90;99.90
4596;DHT22;2310;49.978;8.742;2022-10-22T14:57:33;21.80;99.90
4596;DHT22;2310;49.978;8.742;2022-10-22T15:01:34;21.80;99.90
4596;DHT22;2310;49.978;8.742;2022-10-22T15:05:40;22.00;99.90
4596;DHT22;2310;49.978;8.742;2022-10-22T15:09:43;21.90;99.90
4596;DHT22;2310;49.978;8.742;2022-10-22T15:13:45;21.70;99.90
4596;DHT22;2310;49.978;8.742;2022-10-22T15:17:46;21.40;99.90
4596;DHT22;2310;49.978;8.742;2022-10-22T15:21:47;21.50;99.90
4596;DHT22;2310;49.978;8.742;2022-10-22T15:25:49;21.10;99.90
4596;DHT22;2310;49.978;8.742;2022-10-22T15:29:50;21.30;99.90
4596;DHT22;2310;49.978;8.742;2022-10-22T15:33:51;21.40;99.90
4596;DHT22;2310;49.978;8.742;2022-10-22T15:37:52;21.30;99.90
4596;DHT22;2310;49.978;8.742;2022-10-22T15:41:54;20.90;99.90
4596;DHT22;2310;49.978;8.742;2022-10-22T15:46:14;20.80;99.90
4596;DHT22;2310;49.978;8.742;2022-10-22T15:50:15;20.70;99.90
4596;DHT22;2310;49.978;8.742;2022-10-22T15:54:19;20.40;99.90
4596;DHT22;2310;49.978;8.742;2022-10-22T15:58:21;20.50;99.90
4596;DHT22;2310;49.978;8.742;2022-10-22T16:02:22;20.40;99.90
4596;DHT22;2310;49.978;8.742;2022-10-22T16:06:24;20.40;99.90
4596;DHT22;2310;49.978;8.742;2022-10-22T16:10:26;20.40;99.90
4596;DHT22;2310;49.978;8.742;2022-10-22T16:14:28;20.40;99.90
4596;DHT22;2310;49.978;8.742;2022-10-22T16:18:29;20.30;99.90
4596;DHT22;2310;49.978;8.742;2022-10-22T16:22:30;19.90;99.90
4596;DHT22;2310;49.978;8.742;2022-10-22T16:26:33;19.80;99.90
4596;DHT22;2310;49.978;8.742;2022-10-22T16:30:36;19.70;99.90
4596;DHT22;2310;49.978;8.742;2022-10-22T16:34:37;19.50;99.90
4596;DHT22;2310;49.978;8.742;2022-10-22T16:38:38;19.60;99.90
4596;DHT22;2310;49.978;8.742;2022-10-22T16:42:39;19.40;99.90
4596;DHT22;2310;49.978;8.742;2022-10-22T16:46:41;19.40;99.90
4596;DHT22;2310;49.978;8.742;2022-10-22T16:50:43;19.30;99.90
4596;DHT22;2310;49.978;8.742;2022-10-22T16:54:45;19.20;99.90
4596;DHT22;2310;49.978;8.742;2022-10-22T16:58:52;19.10;99.90
4596;DHT22;2310;49.978;8.742;2022-10-22T17:02:53;19.00;99.90
4596;DHT22;2310;49.978;8.742;2022-10-22T17:06:54;19.00;99.90
4596;DHT22;2310;49.978;8.742;2022-10-22T17:10:56;19.00;99.90
4596;DHT22;2310;49.978;8.742;2022-10-22T17:14:57;18.90;99.90
4596;DHT22;2310;49.978;8.742;2022-10-22T17:19:01;18.80;99.90
4596;DHT22;2310;49.978;8.742;2022-10-22T17:23:02;18.70;99.90
4596;DHT22;2310;49.978;8.742;2022-10-22T17:27:04;18.50;99.90
4596;DHT22;2310;49.978;8.742;2022-10-22T17:31:07;18.50;99.90
4596;DHT22;2310;49.978;8.742;2022-10-22T17:35:10;19.00;99.90
4596;DHT22;2310;49.978;8.742;2022-10-22T17:39:15;18.70;99.90
4596;DHT22;2310;49.978;8.742;2022-10-22T17:43:17;18.60;99.90
4596;DHT22;2310;49.978;8.742;2022-10-22T17:47:19;18.40;99.90
4596;DHT22;2310;49.978;8.742;2022-10-22T17:51:22;18.20;99.90
4596;DHT22;2310;49.978;8.742;2022-10-22T17:55:23;18.00;99.90
4596;DHT22;2310;49.978;8.742;2022-10-22T17:59:24;17.90;99.90
4596;DHT22;2310;49.978;8.742;2022-10-22T18:03:26;17.90;99.90
4596;DHT22;2310;49.978;8.742;2022-10-22T18:07:27;17.90;99.90
4596;DHT22;2310;49.978;8.742;2022-10-22T18:11:28;17.70;99.90
4596;DHT22;2310;49.978;8.742;2022-10-22T18:15:31;17.80;99.90
4596;DHT22;2310;49.978;8.742;2022-10-22T18:19:34;17.80;99.90
4596;DHT22;2310;49.978;8.742;2022-10-22T18:23:35;17.80;99.90
4596;DHT22;2310;49.978;8.742;2022-10-22T18:27:36;17.60;99.90
4596;DHT22;2310;49.978;8.742;2022-10-22T18:31:38;17.60;99.90
4596;DHT22;2310;49.978;8.742;2022-10-22T18:35:39;17.50;99.90
4596;DHT22;2310;49.978;8.742;2022-10-22T18:39:43;17.50;99.90
4596;DHT22;2310;49.978;8.742;2022-10-22T18:43:50;17.40;99.90
4596;DHT22;2310;49.978;8.742;2022-10-22T18:47:51;17.40;99.90
4596;DHT22;2310;49.978;8.742;2022-10-22T18:51:52;17.40;99.90
4596;DHT22;2310;49.978;8.742;2022-10-22T18:55:54;17.20;99.90
4596;DHT22;2310;49.978;8.742;2022-10-22T18:59:55;17.20;99.90
4596;DHT22;2310;49.978;8.742;2022-10-22T19:03:58;17.20;99.90
4596;DHT22;2310;49.978;8.742;2022-10-22T19:08:00;17.20;99.90
4596;DHT22;2310;49.978;8.742;2022-10-22T19:12:01;17.10;99.90
4596;DHT22;2310;49.978;8.742;2022-10-22T19:16:04;17.00;99.90
4596;DHT22;2310;49.978;8.742;2022-10-22T19:20:07;16.90;99.90
4596;DHT22;2310;49.978;8.742;2022-10-22T19:24:09;16.90;99.90
4596;DHT22;2310;49.978;8.742;2022-10-22T19:28:11;16.90;99.90
4596;DHT22;2310;49.978;8.742;2022-10-22T19:32:12;16.80;99.90
4596;DHT22;2310;49.978;8.742;2022-10-22T19:36:15;16.80;99.90
4596;DHT22;2310;49.978;8.742;2022-10-22T19:40:16;16.80;99.90
4596;DHT22;2310;49.978;8.742;2022-10-22T19:44:17;16.80;99.90
4596;DHT22;2310;49.978;8.742;2022-10-22T19:48:19;16.70;99.90
4596;DHT22;2310;49.978;8.742;2022-10-22T19:52:20;16.60;99.90
4596;DHT22;2310;49.978;8.742;2022-10-22T19:56:22;16.60;99.90
4596;DHT22;2310;49.978;8.742;2022-10-22T20:00:23;16.60;99.90
4596;DHT22;2310;49.978;8.742;2022-10-22T20:04:24;16.60;99.90
4596;DHT22;2310;49.978;8.742;2022-10-22T20:08:27;16.70;99.90
4596;DHT22;2310;49.978;8.742;2022-10-22T20:12:28;16.60;99.90
4596;DHT22;2310;49.978;8.742;2022-10-22T20:16:30;16.60;99.90
4596;DHT22;2310;49.978;8.742;2022-10-22T20:20:31;16.50;99.90
4596;DHT22;2310;49.978;8.742;2022-10-22T20:24:32;16.60;99.90
4596;DHT22;2310;49.978;8.742;2022-10-22T20:28:33;16.40;99.90
4596;DHT22;2310;49.978;8.742;2022-10-22T20:32:36;16.20;99.90
4596;DHT22;2310;49.978;8.742;2022-10-22T20:36:38;16.20;99.90
4596;DHT22;2310;49.978;8.742;2022-10-22T20:40:40;16.20;99.90
4596;DHT22;2310;49.978;8.742;2022-10-22T20:44:41;16.40;99.90
4596;DHT22;2310;49.978;8.742;2022-10-22T20:48:42;16.40;99.90
4596;DHT22;2310;49.978;8.742;2022-10-22T20:52:44;16.30;99.90
4596;DHT22;2310;49.978;8.742;2022-10-22T20:56:45;16.40;99.90
4596;DHT22;2310;49.978;8.742;2022-10-22T21:00:48;16.30;99.90
4596;DHT22;2310;49.978;8.742;2022-10-22T21:04:50;16.20;99.90
4596;DHT22;2310;49.978;8.742;2022-10-22T21:08:51;16.10;99.90
4596;DHT22;2310;49.978;8.742;2022-10-22T21:12:52;16.00;99.90
4596;DHT22;2310;49.978;8.742;2022-10-22T21:16:54;16.00;99.90
4596;DHT22;2310;49.978;8.742;2022-10-22T21:20:56;16.00;99.90
4596;DHT22;2310;49.978;8.742;2022-10-22T21:24:57;15.90;99.90
4596;DHT22;2310;49.978;8.742;2022-10-22T21:28:58;15.90;99.90
4596;DHT22;2310;49.978;8.742;2022-10-22T21:32:59;16.00;99.90
4596;DHT22;2310;49.978;8.742;2022-10-22T21:37:00;16.00;99.90
4596;DHT22;2310;49.978;8.742;2022-10-22T21:41:08;16.10;99.90
4596;DHT22;2310;49.978;8.742;2022-10-22T21:45:09;15.90;99.90
4596;DHT22;2310;49.978;8.742;2022-10-22T21:49:12;15.90;99.90
4596;DHT22;2310;49.978;8.742;2022-10-22T21:53:14;15.90;99.90
4596;DHT22;2310;49.978;8.742;2022-10-22T21:57:15;15.80;99.90
4596;DHT22;2310;49.978;8.742;2022-10-22T22:01:17;15.90;99.90
4596;DHT22;2310;49.978;8.742;2022-10-22T22:05:18;15.90;99.90
4596;DHT22;2310;49.978;8.742;2022-10-22T22:09:21;15.70;99.90
4596;DHT22;2310;49.978;8.742;2022-10-22T22:13:22;15.70;99.90
4596;DHT22;2310;49.978;8.742;2022-10-22T22:17:24;15.80;99.90
4596;DHT22;2310;49.978;8.742;2022-10-22T22:21:26;15.70;99.90
4596;DHT22;2310;49.978;8.742;2022-10-22T22:25:28;15.70;99.90
4596;DHT22;2310;49.978;8.742;2022-10-22T22:29:29;15.70;99.90
4596;DHT22;2310;49.978;8.742;2022-10-22T22:33:30;15.60;99.90
4596;DHT22;2310;49.978;8.742;2022-10-22T22:37:31;15.60;99.90
4596;DHT22;2310;49.978;8.742;2022-10-22T22:41:33;15.50;99.90
4596;DHT22;2310;49.978;8.742;2022-10-22T22:45:35;15.50;99.90
4596;DHT22;2310;49.978;8.742;2022-10-22T22:49:36;15.40;99.90
4596;DHT22;2310;49.978;8.742;2022-10-22T22:53:37;15.40;99.90
4596;DHT22;2310;49.978;8.742;2022-10-22T22:57:38;15.40;99.90
4596;DHT22;2310;49.978;8.742;2022-10-22T23:01:40;15.30;99.90
4596;DHT22;2310;49.978;8.742;2022-10-22T23:05:41;15.30;99.90
4596;DHT22;2310;49.978;8.742;2022-10-22T23:09:42;15.40;99.90
4596;DHT22;2310;49.978;8.742;2022-10-22T23:13:45;15.30;99.90
4596;DHT22;2310;49.978;8.742;2022-10-22T23:17:46;15.30;99.90
4596;DHT22;2310;49.978;8.742;2022-10-22T23:21:53;15.20;99.90
4596;DHT22;2310;49.978;8.742;2022-10-22T23:25:54;15.20;99.90
4596;DHT22;2310;49.978;8.742;2022-10-22T23:29:55;15.10;99.90
4596;DHT22;2310;49.978;8.742;2022-10-22T23:33:57;15.10;99.90
4596;DHT22;2310;49.978;8.742;2022-10-22T23:37:58;15.10;99.90
4596;DHT22;2310;49.978;8.742;2022-10-22T23:41:59;15.10;99.90
4596;DHT22;2310;49.978;8.742;2022-10-22T23:46:01;15.10;99.90
4596;DHT22;2310;49.978;8.742;2022-10-22T23:50:03;15.10;99.90
4596;DHT22;2310;49.978;8.742;2022-10-22T23:54:07;15.00;99.90
4596;DHT22;2310;49.978;8.742;2022-10-22T23:58:10;15.00;99.90
